sensor_id;sensor_type;location;lat;lon;timestamp;P1;durP1;ratioP1;P2;durP2;ratioP2
7831;SDS011;3961;42.058;25.586;2024-02-23T00:01:40;18.23;;;12.67;;
7831;SDS011;3961;42.058;25.586;2024-02-23T00:04:06;17.77;;;12.80;;
7831;SDS011;3961;42.058;25.586;2024-02-23T00:06:33;16.47;;;12.33;;
7831;SDS011;3961;42.058;25.586;2024-02-23T00:08:59;16.73;;;11.60;;
7831;SDS011;3961;42.058;25.586;2024-02-23T00:11:24;18.07;;;11.50;;
7831;SDS011;3961;42.058;25.586;2024-02-23T00:13:50;16.93;;;12.23;;
7831;SDS011;3961;42.058;25.586;2024-02-23T00:16:15;19.13;;;13.40;;
7831;SDS011;3961;42.058;25.586;2024-02-23T00:18:41;19.03;;;11.73;;
7831;SDS011;3961;42.058;25.586;2024-02-23T00:21:06;18.10;;;12.10;;
7831;SDS011;3961;42.058;25.586;2024-02-23T00:23:32;18.33;;;12.83;;
7831;SDS011;3961;42.058;25.586;2024-02-23T00:25:57;17.23;;;11.37;;
7831;SDS011;3961;42.058;25.586;2024-02-23T00:28:23;19.73;;;12.13;;
7831;SDS011;3961;42.058;25.586;2024-02-23T00:30:48;16.87;;;12.13;;
7831;SDS011;3961;42.058;25.586;2024-02-23T00:33:14;19.20;;;12.50;;
7831;SDS011;3961;42.058;25.586;2024-02-23T00:35:39;17.60;;;13.13;;
7831;SDS011;3961;42.058;25.586;2024-02-23T00:38:05;18.87;;;13.80;;
7831;SDS011;3961;42.058;25.586;2024-02-23T00:40:32;19.50;;;13.97;;
7831;SDS011;3961;42.058;25.586;2024-02-23T00:42:58;19.37;;;13.47;;
7831;SDS011;3961;42.058;25.586;2024-02-23T00:45:25;18.97;;;12.83;;
7831;SDS011;3961;42.058;25.586;2024-02-23T00:47:51;19.40;;;13.23;;
7831;SDS011;3961;42.058;25.586;2024-02-23T00:50:16;18.60;;;12.10;;
7831;SDS011;3961;42.058;25.586;2024-02-23T00:52:42;20.07;;;13.93;;
7831;SDS011;3961;42.058;25.586;2024-02-23T00:55:08;20.27;;;14.33;;
7831;SDS011;3961;42.058;25.586;2024-02-23T00:57:34;18.37;;;13.33;;
7831;SDS011;3961;42.058;25.586;2024-02-23T01:00:01;19.03;;;14.03;;
7831;SDS011;3961;42.058;25.586;2024-02-23T01:02:28;17.83;;;13.23;;
7831;SDS011;3961;42.058;25.586;2024-02-23T01:04:54;20.10;;;14.00;;
7831;SDS011;3961;42.058;25.586;2024-02-23T01:07:22;19.90;;;13.10;;
7831;SDS011;3961;42.058;25.586;2024-02-23T01:09:48;18.63;;;13.37;;
7831;SDS011;3961;42.058;25.586;2024-02-23T01:12:13;19.17;;;13.73;;
7831;SDS011;3961;42.058;25.586;2024-02-23T01:14:39;19.83;;;14.03;;
7831;SDS011;3961;42.058;25.586;2024-02-23T01:17:04;20.70;;;13.27;;
7831;SDS011;3961;42.058;25.586;2024-02-23T01:19:30;20.87;;;13.80;;
7831;SDS011;3961;42.058;25.586;2024-02-23T01:21:55;20.67;;;14.00;;
7831;SDS011;3961;42.058;25.586;2024-02-23T01:24:25;21.27;;;13.97;;
7831;SDS011;3961;42.058;25.586;2024-02-23T01:26:53;17.37;;;12.97;;
7831;SDS011;3961;42.058;25.586;2024-02-23T01:29:20;18.83;;;13.40;;
7831;SDS011;3961;42.058;25.586;2024-02-23T01:31:45;18.50;;;13.33;;
7831;SDS011;3961;42.058;25.586;2024-02-23T01:34:11;19.40;;;13.23;;
7831;SDS011;3961;42.058;25.586;2024-02-23T01:36:37;16.73;;;13.10;;
7831;SDS011;3961;42.058;25.586;2024-02-23T01:39:04;21.27;;;14.20;;
7831;SDS011;3961;42.058;25.586;2024-02-23T01:41:29;22.87;;;13.80;;
7831;SDS011;3961;42.058;25.586;2024-02-23T01:43:55;19.03;;;13.83;;
7831;SDS011;3961;42.058;25.586;2024-02-23T01:46:21;18.03;;;13.00;;
7831;SDS011;3961;42.058;25.586;2024-02-23T01:48:46;18.53;;;13.30;;
7831;SDS011;3961;42.058;25.586;2024-02-23T01:51:12;20.47;;;12.70;;
7831;SDS011;3961;42.058;25.586;2024-02-23T01:53:38;22.90;;;14.77;;
7831;SDS011;3961;42.058;25.586;2024-02-23T01:56:04;18.00;;;13.17;;
7831;SDS011;3961;42.058;25.586;2024-02-23T01:58:30;19.60;;;13.83;;
7831;SDS011;3961;42.058;25.586;2024-02-23T02:00:56;19.63;;;14.20;;
7831;SDS011;3961;42.058;25.586;2024-02-23T02:03:21;18.60;;;13.20;;
7831;SDS011;3961;42.058;25.586;2024-02-23T02:05:47;19.30;;;13.57;;
7831;SDS011;3961;42.058;25.586;2024-02-23T02:08:14;20.13;;;13.03;;
7831;SDS011;3961;42.058;25.586;2024-02-23T02:10:41;18.77;;;13.00;;
7831;SDS011;3961;42.058;25.586;2024-02-23T02:13:07;20.43;;;13.23;;
7831;SDS011;3961;42.058;25.586;2024-02-23T02:15:33;22.13;;;13.00;;
7831;SDS011;3961;42.058;25.586;2024-02-23T02:17:58;18.77;;;13.90;;
7831;SDS011;3961;42.058;25.586;2024-02-23T02:20:25;19.30;;;13.87;;
7831;SDS011;3961;42.058;25.586;2024-02-23T02:22:51;21.10;;;13.87;;
7831;SDS011;3961;42.058;25.586;2024-02-23T02:25:17;27.80;;;15.33;;
7831;SDS011;3961;42.058;25.586;2024-02-23T02:27:43;21.43;;;14.43;;
7831;SDS011;3961;42.058;25.586;2024-02-23T02:30:11;22.53;;;14.10;;
7831;SDS011;3961;42.058;25.586;2024-02-23T02:32:37;22.53;;;14.07;;
7831;SDS011;3961;42.058;25.586;2024-02-23T02:35:02;21.07;;;13.80;;
7831;SDS011;3961;42.058;25.586;2024-02-23T02:37:28;21.20;;;13.87;;
7831;SDS011;3961;42.058;25.586;2024-02-23T02:39:54;21.43;;;14.80;;
7831;SDS011;3961;42.058;25.586;2024-02-23T02:42:19;23.37;;;15.10;;
7831;SDS011;3961;42.058;25.586;2024-02-23T02:44:45;26.77;;;16.37;;
7831;SDS011;3961;42.058;25.586;2024-02-23T02:47:10;22.87;;;15.33;;
7831;SDS011;3961;42.058;25.586;2024-02-23T02:49:36;25.30;;;16.10;;
7831;SDS011;3961;42.058;25.586;2024-02-23T02:52:01;26.67;;;16.00;;
7831;SDS011;3961;42.058;25.586;2024-02-23T02:54:27;21.97;;;15.20;;
7831;SDS011;3961;42.058;25.586;2024-02-23T02:56:53;24.20;;;15.57;;
7831;SDS011;3961;42.058;25.586;2024-02-23T02:59:19;20.17;;;13.97;;
7831;SDS011;3961;42.058;25.586;2024-02-23T03:01:45;22.73;;;14.07;;
7831;SDS011;3961;42.058;25.586;2024-02-23T03:04:12;18.07;;;13.07;;
7831;SDS011;3961;42.058;25.586;2024-02-23T03:06:37;22.58;;;13.38;;
7831;SDS011;3961;42.058;25.586;2024-02-23T03:09:03;20.27;;;13.30;;
7831;SDS011;3961;42.058;25.586;2024-02-23T03:11:28;20.90;;;13.70;;
7831;SDS011;3961;42.058;25.586;2024-02-23T03:13:54;21.97;;;14.33;;
7831;SDS011;3961;42.058;25.586;2024-02-23T03:16:20;26.93;;;14.57;;
7831;SDS011;3961;42.058;25.586;2024-02-23T03:18:48;23.77;;;15.37;;
7831;SDS011;3961;42.058;25.586;2024-02-23T03:21:14;29.40;;;17.07;;
7831;SDS011;3961;42.058;25.586;2024-02-23T03:23:40;30.87;;;18.07;;
7831;SDS011;3961;42.058;25.586;2024-02-23T03:26:09;28.53;;;17.93;;
7831;SDS011;3961;42.058;25.586;2024-02-23T03:28:34;27.17;;;18.27;;
7831;SDS011;3961;42.058;25.586;2024-02-23T03:31:00;30.97;;;19.37;;
7831;SDS011;3961;42.058;25.586;2024-02-23T03:33:26;26.17;;;18.10;;
7831;SDS011;3961;42.058;25.586;2024-02-23T03:35:51;26.10;;;17.53;;
7831;SDS011;3961;42.058;25.586;2024-02-23T03:38:17;24.80;;;17.07;;
7831;SDS011;3961;42.058;25.586;2024-02-23T03:40:43;28.63;;;17.43;;
7831;SDS011;3961;42.058;25.586;2024-02-23T03:43:08;26.23;;;17.30;;
7831;SDS011;3961;42.058;25.586;2024-02-23T03:45:34;33.10;;;18.93;;
7831;SDS011;3961;42.058;25.586;2024-02-23T03:48:00;29.83;;;17.93;;
7831;SDS011;3961;42.058;25.586;2024-02-23T03:50:26;37.17;;;20.70;;
7831;SDS011;3961;42.058;25.586;2024-02-23T03:52:51;46.30;;;24.27;;
7831;SDS011;3961;42.058;25.586;2024-02-23T03:55:17;40.43;;;22.50;;
7831;SDS011;3961;42.058;25.586;2024-02-23T03:57:43;39.70;;;20.97;;
7831;SDS011;3961;42.058;25.586;2024-02-23T04:00:09;60.23;;;27.33;;
7831;SDS011;3961;42.058;25.586;2024-02-23T04:02:35;42.43;;;23.27;;
7831;SDS011;3961;42.058;25.586;2024-02-23T04:05:00;27.23;;;17.40;;
7831;SDS011;3961;42.058;25.586;2024-02-23T04:07:26;26.97;;;17.40;;
7831;SDS011;3961;42.058;25.586;2024-02-23T04:09:51;36.67;;;19.53;;
7831;SDS011;3961;42.058;25.586;2024-02-23T04:12:23;41.53;;;22.13;;
7831;SDS011;3961;42.058;25.586;2024-02-23T04:14:49;41.67;;;20.83;;
7831;SDS011;3961;42.058;25.586;2024-02-23T04:17:15;41.00;;;21.13;;
7831;SDS011;3961;42.058;25.586;2024-02-23T04:19:41;31.03;;;17.10;;
7831;SDS011;3961;42.058;25.586;2024-02-23T04:22:07;33.47;;;17.63;;
7831;SDS011;3961;42.058;25.586;2024-02-23T04:24:37;29.50;;;17.60;;
7831;SDS011;3961;42.058;25.586;2024-02-23T04:27:07;25.80;;;16.70;;
7831;SDS011;3961;42.058;25.586;2024-02-23T04:29:33;40.30;;;19.33;;
7831;SDS011;3961;42.058;25.586;2024-02-23T04:31:59;35.83;;;18.17;;
7831;SDS011;3961;42.058;25.586;2024-02-23T04:34:25;24.73;;;16.07;;
7831;SDS011;3961;42.058;25.586;2024-02-23T04:36:51;31.87;;;16.30;;
7831;SDS011;3961;42.058;25.586;2024-02-23T04:39:16;31.50;;;15.87;;
7831;SDS011;3961;42.058;25.586;2024-02-23T04:41:42;26.23;;;15.40;;
7831;SDS011;3961;42.058;25.586;2024-02-23T04:44:08;26.40;;;16.03;;
7831;SDS011;3961;42.058;25.586;2024-02-23T04:46:33;25.37;;;14.67;;
7831;SDS011;3961;42.058;25.586;2024-02-23T04:48:59;24.03;;;15.80;;
7831;SDS011;3961;42.058;25.586;2024-02-23T04:51:25;25.47;;;15.90;;
7831;SDS011;3961;42.058;25.586;2024-02-23T04:53:51;30.10;;;17.83;;
7831;SDS011;3961;42.058;25.586;2024-02-23T04:56:16;28.63;;;16.50;;
7831;SDS011;3961;42.058;25.586;2024-02-23T04:58:43;35.50;;;17.90;;
7831;SDS011;3961;42.058;25.586;2024-02-23T05:01:09;43.07;;;27.50;;
7831;SDS011;3961;42.058;25.586;2024-02-23T05:03:35;31.03;;;18.20;;
7831;SDS011;3961;42.058;25.586;2024-02-23T05:06:02;31.97;;;19.20;;
7831;SDS011;3961;42.058;25.586;2024-02-23T05:08:28;33.33;;;19.50;;
7831;SDS011;3961;42.058;25.586;2024-02-23T05:10:55;24.83;;;15.47;;
7831;SDS011;3961;42.058;25.586;2024-02-23T05:13:21;23.40;;;14.50;;
7831;SDS011;3961;42.058;25.586;2024-02-23T05:15:46;26.67;;;14.37;;
7831;SDS011;3961;42.058;25.586;2024-02-23T05:18:12;25.30;;;14.83;;
7831;SDS011;3961;42.058;25.586;2024-02-23T05:20:38;23.63;;;14.67;;
7831;SDS011;3961;42.058;25.586;2024-02-23T05:23:04;29.40;;;16.67;;
7831;SDS011;3961;42.058;25.586;2024-02-23T05:25:29;28.50;;;16.00;;
7831;SDS011;3961;42.058;25.586;2024-02-23T05:27:55;26.93;;;17.50;;
7831;SDS011;3961;42.058;25.586;2024-02-23T05:30:20;34.07;;;18.97;;
7831;SDS011;3961;42.058;25.586;2024-02-23T05:32:47;30.90;;;17.57;;
7831;SDS011;3961;42.058;25.586;2024-02-23T05:35:12;28.97;;;16.60;;
7831;SDS011;3961;42.058;25.586;2024-02-23T05:37:38;31.77;;;16.83;;
7831;SDS011;3961;42.058;25.586;2024-02-23T05:40:04;26.23;;;15.57;;
7831;SDS011;3961;42.058;25.586;2024-02-23T05:42:38;21.90;;;15.03;;
7831;SDS011;3961;42.058;25.586;2024-02-23T05:45:04;26.47;;;16.10;;
7831;SDS011;3961;42.058;25.586;2024-02-23T05:47:34;24.93;;;15.13;;
7831;SDS011;3961;42.058;25.586;2024-02-23T05:50:03;22.23;;;14.80;;
7831;SDS011;3961;42.058;25.586;2024-02-23T05:52:32;25.60;;;15.73;;
7831;SDS011;3961;42.058;25.586;2024-02-23T05:54:58;25.23;;;15.77;;
7831;SDS011;3961;42.058;25.586;2024-02-23T05:57:25;23.70;;;14.47;;
7831;SDS011;3961;42.058;25.586;2024-02-23T05:59:52;22.90;;;14.80;;
7831;SDS011;3961;42.058;25.586;2024-02-23T06:02:17;20.80;;;13.80;;
7831;SDS011;3961;42.058;25.586;2024-02-23T06:04:43;21.93;;;14.63;;
7831;SDS011;3961;42.058;25.586;2024-02-23T06:07:09;20.70;;;14.17;;
7831;SDS011;3961;42.058;25.586;2024-02-23T06:09:35;23.00;;;14.23;;
7831;SDS011;3961;42.058;25.586;2024-02-23T06:12:01;25.73;;;14.83;;
7831;SDS011;3961;42.058;25.586;2024-02-23T06:14:26;21.80;;;14.70;;
7831;SDS011;3961;42.058;25.586;2024-02-23T06:16:51;22.30;;;13.73;;
7831;SDS011;3961;42.058;25.586;2024-02-23T06:19:17;32.23;;;17.90;;
7831;SDS011;3961;42.058;25.586;2024-02-23T06:21:43;28.03;;;15.80;;
7831;SDS011;3961;42.058;25.586;2024-02-23T06:24:08;25.07;;;15.87;;
7831;SDS011;3961;42.058;25.586;2024-02-23T06:26:34;25.50;;;14.80;;
7831;SDS011;3961;42.058;25.586;2024-02-23T06:29:00;23.47;;;14.10;;
7831;SDS011;3961;42.058;25.586;2024-02-23T06:31:25;23.00;;;15.53;;
7831;SDS011;3961;42.058;25.586;2024-02-23T06:33:51;26.87;;;15.20;;
7831;SDS011;3961;42.058;25.586;2024-02-23T06:36:17;32.37;;;18.40;;
7831;SDS011;3961;42.058;25.586;2024-02-23T06:38:46;23.57;;;15.20;;
7831;SDS011;3961;42.058;25.586;2024-02-23T06:41:11;22.53;;;15.47;;
7831;SDS011;3961;42.058;25.586;2024-02-23T06:43:37;23.63;;;15.80;;
7831;SDS011;3961;42.058;25.586;2024-02-23T06:46:10;27.13;;;16.17;;
7831;SDS011;3961;42.058;25.586;2024-02-23T06:48:35;27.60;;;15.87;;
7831;SDS011;3961;42.058;25.586;2024-02-23T06:51:02;26.77;;;17.20;;
7831;SDS011;3961;42.058;25.586;2024-02-23T06:53:29;27.43;;;16.73;;
7831;SDS011;3961;42.058;25.586;2024-02-23T06:55:55;25.37;;;16.30;;
7831;SDS011;3961;42.058;25.586;2024-02-23T06:58:20;27.90;;;17.47;;
7831;SDS011;3961;42.058;25.586;2024-02-23T07:00:46;23.80;;;16.00;;
7831;SDS011;3961;42.058;25.586;2024-02-23T07:03:12;30.83;;;17.80;;
7831;SDS011;3961;42.058;25.586;2024-02-23T07:05:40;29.00;;;19.63;;
7831;SDS011;3961;42.058;25.586;2024-02-23T07:08:08;20.30;;;14.53;;
7831;SDS011;3961;42.058;25.586;2024-02-23T07:10:33;23.13;;;15.40;;
7831;SDS011;3961;42.058;25.586;2024-02-23T07:12:59;34.30;;;21.33;;
7831;SDS011;3961;42.058;25.586;2024-02-23T07:15:25;36.60;;;23.13;;
7831;SDS011;3961;42.058;25.586;2024-02-23T07:17:51;19.90;;;14.23;;
7831;SDS011;3961;42.058;25.586;2024-02-23T07:20:17;20.73;;;14.67;;
7831;SDS011;3961;42.058;25.586;2024-02-23T07:22:43;20.87;;;15.07;;
7831;SDS011;3961;42.058;25.586;2024-02-23T07:25:15;22.27;;;14.87;;
7831;SDS011;3961;42.058;25.586;2024-02-23T07:27:41;22.03;;;15.77;;
7831;SDS011;3961;42.058;25.586;2024-02-23T07:30:07;26.17;;;15.90;;
7831;SDS011;3961;42.058;25.586;2024-02-23T07:32:33;24.70;;;16.73;;
7831;SDS011;3961;42.058;25.586;2024-02-23T07:34:59;25.10;;;15.70;;
7831;SDS011;3961;42.058;25.586;2024-02-23T07:37:26;24.20;;;16.83;;
7831;SDS011;3961;42.058;25.586;2024-02-23T07:39:52;27.80;;;17.50;;
7831;SDS011;3961;42.058;25.586;2024-02-23T07:42:18;25.33;;;17.53;;
7831;SDS011;3961;42.058;25.586;2024-02-23T07:44:44;32.13;;;16.73;;
7831;SDS011;3961;42.058;25.586;2024-02-23T07:47:10;22.17;;;15.63;;
7831;SDS011;3961;42.058;25.586;2024-02-23T07:49:36;22.50;;;16.90;;
7831;SDS011;3961;42.058;25.586;2024-02-23T07:52:02;23.70;;;17.07;;
7831;SDS011;3961;42.058;25.586;2024-02-23T07:54:28;22.23;;;16.30;;
7831;SDS011;3961;42.058;25.586;2024-02-23T07:56:53;26.47;;;14.87;;
7831;SDS011;3961;42.058;25.586;2024-02-23T07:59:19;21.40;;;14.63;;
7831;SDS011;3961;42.058;25.586;2024-02-23T08:01:45;23.07;;;15.10;;
7831;SDS011;3961;42.058;25.586;2024-02-23T08:04:11;22.00;;;15.53;;
7831;SDS011;3961;42.058;25.586;2024-02-23T08:06:38;20.43;;;12.87;;
7831;SDS011;3961;42.058;25.586;2024-02-23T08:09:04;23.47;;;12.40;;
7831;SDS011;3961;42.058;25.586;2024-02-23T08:11:30;19.90;;;14.27;;
7831;SDS011;3961;42.058;25.586;2024-02-23T08:13:55;20.97;;;15.63;;
7831;SDS011;3961;42.058;25.586;2024-02-23T08:16:21;21.37;;;16.10;;
7831;SDS011;3961;42.058;25.586;2024-02-23T08:18:47;43.20;;;25.23;;
7831;SDS011;3961;42.058;25.586;2024-02-23T08:21:12;26.13;;;16.80;;
7831;SDS011;3961;42.058;25.586;2024-02-23T08:23:38;20.50;;;15.07;;
7831;SDS011;3961;42.058;25.586;2024-02-23T08:26:03;21.00;;;15.33;;
7831;SDS011;3961;42.058;25.586;2024-02-23T08:28:29;21.93;;;16.47;;
7831;SDS011;3961;42.058;25.586;2024-02-23T08:30:54;28.43;;;19.13;;
7831;SDS011;3961;42.058;25.586;2024-02-23T08:33:20;23.73;;;16.67;;
7831;SDS011;3961;42.058;25.586;2024-02-23T08:35:45;22.47;;;16.40;;
7831;SDS011;3961;42.058;25.586;2024-02-23T08:38:13;25.47;;;17.77;;
7831;SDS011;3961;42.058;25.586;2024-02-23T08:40:39;23.20;;;16.40;;
7831;SDS011;3961;42.058;25.586;2024-02-23T08:43:05;21.10;;;14.97;;
7831;SDS011;3961;42.058;25.586;2024-02-23T08:45:30;20.07;;;15.43;;
7831;SDS011;3961;42.058;25.586;2024-02-23T08:47:56;24.73;;;15.00;;
7831;SDS011;3961;42.058;25.586;2024-02-23T08:50:22;21.50;;;15.00;;
7831;SDS011;3961;42.058;25.586;2024-02-23T08:52:48;22.37;;;15.43;;
7831;SDS011;3961;42.058;25.586;2024-02-23T08:55:13;19.17;;;15.17;;
7831;SDS011;3961;42.058;25.586;2024-02-23T08:57:39;20.83;;;14.57;;
7831;SDS011;3961;42.058;25.586;2024-02-23T09:00:05;20.67;;;14.80;;
7831;SDS011;3961;42.058;25.586;2024-02-23T09:02:31;20.00;;;14.27;;
7831;SDS011;3961;42.058;25.586;2024-02-23T09:04:57;18.63;;;14.30;;
7831;SDS011;3961;42.058;25.586;2024-02-23T09:07:23;20.97;;;14.67;;
7831;SDS011;3961;42.058;25.586;2024-02-23T09:09:49;20.17;;;14.93;;
7831;SDS011;3961;42.058;25.586;2024-02-23T09:12:15;22.33;;;15.43;;
7831;SDS011;3961;42.058;25.586;2024-02-23T09:14:42;20.03;;;14.77;;
7831;SDS011;3961;42.058;25.586;2024-02-23T09:17:09;20.57;;;15.27;;
7831;SDS011;3961;42.058;25.586;2024-02-23T09:19:36;24.27;;;15.13;;
7831;SDS011;3961;42.058;25.586;2024-02-23T09:22:02;19.67;;;14.93;;
7831;SDS011;3961;42.058;25.586;2024-02-23T09:24:28;22.70;;;16.53;;
7831;SDS011;3961;42.058;25.586;2024-02-23T09:26:54;20.70;;;15.40;;
7831;SDS011;3961;42.058;25.586;2024-02-23T09:29:19;19.10;;;14.23;;
7831;SDS011;3961;42.058;25.586;2024-02-23T09:31:45;18.20;;;14.03;;
7831;SDS011;3961;42.058;25.586;2024-02-23T09:34:11;20.50;;;14.00;;
7831;SDS011;3961;42.058;25.586;2024-02-23T09:36:36;19.93;;;13.50;;
7831;SDS011;3961;42.058;25.586;2024-02-23T09:39:02;18.20;;;14.40;;
7831;SDS011;3961;42.058;25.586;2024-02-23T09:41:29;56.20;;;38.93;;
7831;SDS011;3961;42.058;25.586;2024-02-23T09:43:58;71.43;;;55.50;;
7831;SDS011;3961;42.058;25.586;2024-02-23T09:46:25;23.60;;;15.50;;
7831;SDS011;3961;42.058;25.586;2024-02-23T09:48:51;23.53;;;14.80;;
7831;SDS011;3961;42.058;25.586;2024-02-23T09:51:17;18.60;;;13.93;;
7831;SDS011;3961;42.058;25.586;2024-02-23T09:53:43;22.77;;;14.13;;
7831;SDS011;3961;42.058;25.586;2024-02-23T09:56:09;18.73;;;13.17;;
7831;SDS011;3961;42.058;25.586;2024-02-23T09:58:39;19.40;;;13.37;;
7831;SDS011;3961;42.058;25.586;2024-02-23T10:01:05;17.00;;;13.73;;
7831;SDS011;3961;42.058;25.586;2024-02-23T10:03:31;17.30;;;12.90;;
7831;SDS011;3961;42.058;25.586;2024-02-23T10:05:57;17.40;;;12.90;;
7831;SDS011;3961;42.058;25.586;2024-02-23T10:08:23;21.97;;;13.67;;
7831;SDS011;3961;42.058;25.586;2024-02-23T10:10:48;37.60;;;24.77;;
7831;SDS011;3961;42.058;25.586;2024-02-23T10:13:19;19.93;;;14.60;;
7831;SDS011;3961;42.058;25.586;2024-02-23T10:15:47;16.77;;;13.27;;
7831;SDS011;3961;42.058;25.586;2024-02-23T10:18:13;19.13;;;13.43;;
7831;SDS011;3961;42.058;25.586;2024-02-23T10:20:40;20.23;;;13.77;;
7831;SDS011;3961;42.058;25.586;2024-02-23T10:23:07;18.50;;;13.73;;
7831;SDS011;3961;42.058;25.586;2024-02-23T10:25:34;15.83;;;13.10;;
7831;SDS011;3961;42.058;25.586;2024-02-23T10:28:03;20.87;;;12.57;;
7831;SDS011;3961;42.058;25.586;2024-02-23T10:30:30;18.20;;;12.90;;
7831;SDS011;3961;42.058;25.586;2024-02-23T10:32:56;15.43;;;11.93;;
7831;SDS011;3961;42.058;25.586;2024-02-23T10:35:23;17.83;;;12.53;;
7831;SDS011;3961;42.058;25.586;2024-02-23T10:37:50;15.37;;;12.10;;
7831;SDS011;3961;42.058;25.586;2024-02-23T10:40:18;16.00;;;12.17;;
7831;SDS011;3961;42.058;25.586;2024-02-23T10:42:45;17.30;;;12.13;;
7831;SDS011;3961;42.058;25.586;2024-02-23T10:45:20;17.10;;;12.53;;
7831;SDS011;3961;42.058;25.586;2024-02-23T10:47:49;14.07;;;11.13;;
7831;SDS011;3961;42.058;25.586;2024-02-23T10:50:16;13.67;;;10.87;;
7831;SDS011;3961;42.058;25.586;2024-02-23T10:52:44;12.70;;;10.20;;
7831;SDS011;3961;42.058;25.586;2024-02-23T10:55:10;12.50;;;9.73;;
7831;SDS011;3961;42.058;25.586;2024-02-23T10:57:36;11.67;;;10.10;;
7831;SDS011;3961;42.058;25.586;2024-02-23T11:00:04;14.10;;;10.03;;
7831;SDS011;3961;42.058;25.586;2024-02-23T11:02:36;15.57;;;10.37;;
7831;SDS011;3961;42.058;25.586;2024-02-23T11:05:06;13.80;;;9.60;;
7831;SDS011;3961;42.058;25.586;2024-02-23T11:07:37;14.67;;;10.03;;
7831;SDS011;3961;42.058;25.586;2024-02-23T11:10:04;9.30;;;7.37;;
7831;SDS011;3961;42.058;25.586;2024-02-23T11:12:31;12.40;;;8.90;;
7831;SDS011;3961;42.058;25.586;2024-02-23T11:14:59;10.73;;;8.77;;
7831;SDS011;3961;42.058;25.586;2024-02-23T11:17:26;13.40;;;9.50;;
7831;SDS011;3961;42.058;25.586;2024-02-23T11:19:54;10.87;;;7.87;;
7831;SDS011;3961;42.058;25.586;2024-02-23T11:22:30;14.77;;;8.83;;
7831;SDS011;3961;42.058;25.586;2024-02-23T11:25:03;27.23;;;19.90;;
7831;SDS011;3961;42.058;25.586;2024-02-23T11:27:31;18.43;;;13.90;;
7831;SDS011;3961;42.058;25.586;2024-02-23T11:30:08;35.90;;;24.67;;
7831;SDS011;3961;42.058;25.586;2024-02-23T11:32:38;46.40;;;32.87;;
7831;SDS011;3961;42.058;25.586;2024-02-23T11:35:10;15.00;;;12.07;;
7831;SDS011;3961;42.058;25.586;2024-02-23T11:37:49;12.90;;;9.23;;
7831;SDS011;3961;42.058;25.586;2024-02-23T11:40:23;13.20;;;9.83;;
7831;SDS011;3961;42.058;25.586;2024-02-23T11:42:50;12.40;;;9.10;;
7831;SDS011;3961;42.058;25.586;2024-02-23T11:45:16;11.50;;;8.13;;
7831;SDS011;3961;42.058;25.586;2024-02-23T11:47:42;11.63;;;8.40;;
7831;SDS011;3961;42.058;25.586;2024-02-23T11:50:08;9.73;;;8.07;;
7831;SDS011;3961;42.058;25.586;2024-02-23T11:52:34;11.90;;;7.73;;
7831;SDS011;3961;42.058;25.586;2024-02-23T11:55:01;12.27;;;8.07;;
7831;SDS011;3961;42.058;25.586;2024-02-23T11:57:27;8.77;;;7.30;;
7831;SDS011;3961;42.058;25.586;2024-02-23T11:59:53;10.47;;;7.57;;
7831;SDS011;3961;42.058;25.586;2024-02-23T12:02:20;12.40;;;7.80;;
7831;SDS011;3961;42.058;25.586;2024-02-23T12:04:46;12.20;;;7.27;;
7831;SDS011;3961;42.058;25.586;2024-02-23T12:07:11;8.93;;;7.30;;
7831;SDS011;3961;42.058;25.586;2024-02-23T12:09:37;8.43;;;6.73;;
7831;SDS011;3961;42.058;25.586;2024-02-23T12:12:06;6.90;;;5.60;;
7831;SDS011;3961;42.058;25.586;2024-02-23T12:14:32;6.93;;;5.60;;
7831;SDS011;3961;42.058;25.586;2024-02-23T12:16:57;8.47;;;5.60;;
7831;SDS011;3961;42.058;25.586;2024-02-23T12:19:23;7.07;;;5.70;;
7831;SDS011;3961;42.058;25.586;2024-02-23T12:21:49;7.83;;;5.70;;
7831;SDS011;3961;42.058;25.586;2024-02-23T12:24:14;8.40;;;5.53;;
7831;SDS011;3961;42.058;25.586;2024-02-23T12:26:40;9.77;;;4.37;;
7831;SDS011;3961;42.058;25.586;2024-02-23T12:29:06;5.00;;;3.30;;
7831;SDS011;3961;42.058;25.586;2024-02-23T12:31:31;8.37;;;5.03;;
7831;SDS011;3961;42.058;25.586;2024-02-23T12:33:57;4.30;;;3.60;;
7831;SDS011;3961;42.058;25.586;2024-02-23T12:36:23;5.60;;;3.47;;
7831;SDS011;3961;42.058;25.586;2024-02-23T12:38:49;4.87;;;2.70;;
7831;SDS011;3961;42.058;25.586;2024-02-23T12:41:14;5.50;;;3.30;;
7831;SDS011;3961;42.058;25.586;2024-02-23T12:43:40;7.47;;;4.03;;
7831;SDS011;3961;42.058;25.586;2024-02-23T12:46:06;8.50;;;4.60;;
7831;SDS011;3961;42.058;25.586;2024-02-23T12:48:33;3.93;;;3.03;;
7831;SDS011;3961;42.058;25.586;2024-02-23T12:50:59;7.50;;;3.17;;
7831;SDS011;3961;42.058;25.586;2024-02-23T12:53:38;3.80;;;3.27;;
7831;SDS011;3961;42.058;25.586;2024-02-23T12:56:18;6.26;;;3.84;;
7831;SDS011;3961;42.058;25.586;2024-02-23T12:58:45;5.80;;;3.90;;
7831;SDS011;3961;42.058;25.586;2024-02-23T13:01:11;4.80;;;3.73;;
7831;SDS011;3961;42.058;25.586;2024-02-23T13:03:37;6.00;;;3.70;;
7831;SDS011;3961;42.058;25.586;2024-02-23T13:06:06;4.10;;;3.10;;
7831;SDS011;3961;42.058;25.586;2024-02-23T13:08:32;5.93;;;3.10;;
7831;SDS011;3961;42.058;25.586;2024-02-23T13:10:58;3.60;;;2.97;;
7831;SDS011;3961;42.058;25.586;2024-02-23T13:13:23;5.63;;;3.03;;
7831;SDS011;3961;42.058;25.586;2024-02-23T13:15:51;28.53;;;18.27;;
7831;SDS011;3961;42.058;25.586;2024-02-23T13:18:17;5.23;;;3.00;;
7831;SDS011;3961;42.058;25.586;2024-02-23T13:20:44;12.23;;;3.33;;
7831;SDS011;3961;42.058;25.586;2024-02-23T13:23:10;4.17;;;2.47;;
7831;SDS011;3961;42.058;25.586;2024-02-23T13:25:37;5.20;;;2.83;;
7831;SDS011;3961;42.058;25.586;2024-02-23T13:28:04;11.20;;;3.17;;
7831;SDS011;3961;42.058;25.586;2024-02-23T13:30:30;5.30;;;3.10;;
7831;SDS011;3961;42.058;25.586;2024-02-23T13:32:57;7.73;;;3.17;;
7831;SDS011;3961;42.058;25.586;2024-02-23T13:35:22;5.23;;;2.90;;
7831;SDS011;3961;42.058;25.586;2024-02-23T13:37:48;4.57;;;2.63;;
7831;SDS011;3961;42.058;25.586;2024-02-23T13:40:13;5.83;;;3.13;;
7831;SDS011;3961;42.058;25.586;2024-02-23T13:42:39;13.50;;;3.03;;
7831;SDS011;3961;42.058;25.586;2024-02-23T13:45:08;6.00;;;3.30;;
7831;SDS011;3961;42.058;25.586;2024-02-23T13:47:34;5.40;;;3.20;;
7831;SDS011;3961;42.058;25.586;2024-02-23T13:50:01;5.13;;;3.00;;
7831;SDS011;3961;42.058;25.586;2024-02-23T13:52:27;3.87;;;2.83;;
7831;SDS011;3961;42.058;25.586;2024-02-23T13:54:53;40.30;;;27.00;;
7831;SDS011;3961;42.058;25.586;2024-02-23T13:57:18;56.27;;;36.60;;
7831;SDS011;3961;42.058;25.586;2024-02-23T13:59:44;9.53;;;3.47;;
7831;SDS011;3961;42.058;25.586;2024-02-23T14:02:09;4.23;;;2.80;;
7831;SDS011;3961;42.058;25.586;2024-02-23T14:04:35;5.87;;;3.23;;
7831;SDS011;3961;42.058;25.586;2024-02-23T14:07:01;7.87;;;3.03;;
7831;SDS011;3961;42.058;25.586;2024-02-23T14:09:26;5.27;;;3.30;;
7831;SDS011;3961;42.058;25.586;2024-02-23T14:11:52;7.57;;;3.00;;
7831;SDS011;3961;42.058;25.586;2024-02-23T14:14:17;3.70;;;2.80;;
7831;SDS011;3961;42.058;25.586;2024-02-23T14:16:44;6.87;;;3.40;;
7831;SDS011;3961;42.058;25.586;2024-02-23T14:19:10;6.03;;;2.90;;
7831;SDS011;3961;42.058;25.586;2024-02-23T14:21:36;9.73;;;4.23;;
7831;SDS011;3961;42.058;25.586;2024-02-23T14:24:02;6.07;;;2.90;;
7831;SDS011;3961;42.058;25.586;2024-02-23T14:26:28;5.40;;;3.47;;
7831;SDS011;3961;42.058;25.586;2024-02-23T14:28:53;5.07;;;3.10;;
7831;SDS011;3961;42.058;25.586;2024-02-23T14:31:19;5.73;;;3.37;;
7831;SDS011;3961;42.058;25.586;2024-02-23T14:33:44;4.10;;;3.00;;
7831;SDS011;3961;42.058;25.586;2024-02-23T14:36:10;6.43;;;3.13;;